sensor_id;sensor_type;location;lat;lon;timestamp;P1;durP1;ratioP1;P2;durP2;ratioP2
18387;SDS011;9320;50.256;19.026;2022-09-09T00:00:59;12.05;;;7.35;;
18387;SDS011;9320;50.256;19.026;2022-09-09T00:03:34;11.00;;;7.43;;
18387;SDS011;9320;50.256;19.026;2022-09-09T00:06:14;12.20;;;8.40;;
18387;SDS011;9320;50.256;19.026;2022-09-09T00:08:50;13.13;;;8.88;;
18387;SDS011;9320;50.256;19.026;2022-09-09T00:11:40;11.00;;;8.32;;
18387;SDS011;9320;50.256;19.026;2022-09-09T00:14:15;13.30;;;8.52;;
18387;SDS011;9320;50.256;19.026;2022-09-09T00:16:50;12.55;;;8.85;;
18387;SDS011;9320;50.256;19.026;2022-09-09T00:19:23;18.08;;;9.23;;
18387;SDS011;9320;50.256;19.026;2022-09-09T00:22:00;12.90;;;9.57;;
18387;SDS011;9320;50.256;19.026;2022-09-09T00:24:41;14.10;;;10.43;;
18387;SDS011;9320;50.256;19.026;2022-09-09T00:27:13;14.93;;;10.77;;
18387;SDS011;9320;50.256;19.026;2022-09-09T00:29:47;19.30;;;12.27;;
18387;SDS011;9320;50.256;19.026;2022-09-09T00:32:20;17.80;;;12.98;;
18387;SDS011;9320;50.256;19.026;2022-09-09T00:34:49;20.58;;;13.38;;
18387;SDS011;9320;50.256;19.026;2022-09-09T00:37:22;19.23;;;13.82;;
18387;SDS011;9320;50.256;19.026;2022-09-09T00:39:53;23.13;;;15.10;;
18387;SDS011;9320;50.256;19.026;2022-09-09T00:42:26;22.23;;;14.93;;
18387;SDS011;9320;50.256;19.026;2022-09-09T00:45:09;21.98;;;14.88;;
18387;SDS011;9320;50.256;19.026;2022-09-09T00:47:52;23.02;;;14.73;;
18387;SDS011;9320;50.256;19.026;2022-09-09T00:50:28;23.75;;;14.50;;
18387;SDS011;9320;50.256;19.026;2022-09-09T00:53:12;21.42;;;14.60;;
18387;SDS011;9320;50.256;19.026;2022-09-09T00:55:52;18.95;;;13.38;;
18387;SDS011;9320;50.256;19.026;2022-09-09T00:58:27;20.08;;;14.20;;
18387;SDS011;9320;50.256;19.026;2022-09-09T01:00:56;21.08;;;13.82;;
18387;SDS011;9320;50.256;19.026;2022-09-09T01:03:34;22.75;;;14.35;;
18387;SDS011;9320;50.256;19.026;2022-09-09T01:06:11;27.77;;;16.77;;
18387;SDS011;9320;50.256;19.026;2022-09-09T01:09:00;27.45;;;17.83;;
18387;SDS011;9320;50.256;19.026;2022-09-09T01:11:37;32.03;;;19.17;;
18387;SDS011;9320;50.256;19.026;2022-09-09T01:14:20;30.88;;;20.38;;
18387;SDS011;9320;50.256;19.026;2022-09-09T01:16:58;31.65;;;20.23;;
18387;SDS011;9320;50.256;19.026;2022-09-09T01:19:34;33.90;;;19.60;;
18387;SDS011;9320;50.256;19.026;2022-09-09T01:22:09;28.77;;;18.02;;
18387;SDS011;9320;50.256;19.026;2022-09-09T01:24:48;29.25;;;19.02;;
18387;SDS011;9320;50.256;19.026;2022-09-09T01:27:38;30.25;;;19.13;;
18387;SDS011;9320;50.256;19.026;2022-09-09T01:30:09;31.10;;;19.60;;
18387;SDS011;9320;50.256;19.026;2022-09-09T01:32:40;28.77;;;19.33;;
18387;SDS011;9320;50.256;19.026;2022-09-09T01:35:11;30.42;;;19.40;;
18387;SDS011;9320;50.256;19.026;2022-09-09T01:37:46;24.27;;;17.20;;
18387;SDS011;9320;50.256;19.026;2022-09-09T01:40:14;26.08;;;17.42;;
18387;SDS011;9320;50.256;19.026;2022-09-09T01:42:44;26.02;;;17.55;;
18387;SDS011;9320;50.256;19.026;2022-09-09T01:45:12;24.63;;;17.48;;
18387;SDS011;9320;50.256;19.026;2022-09-09T01:47:40;26.27;;;18.00;;
18387;SDS011;9320;50.256;19.026;2022-09-09T01:50:09;32.40;;;17.30;;
18387;SDS011;9320;50.256;19.026;2022-09-09T01:52:39;24.60;;;16.70;;
18387;SDS011;9320;50.256;19.026;2022-09-09T01:55:09;25.08;;;16.95;;
18387;SDS011;9320;50.256;19.026;2022-09-09T01:57:39;27.00;;;18.17;;
18387;SDS011;9320;50.256;19.026;2022-09-09T02:00:17;23.95;;;16.98;;
18387;SDS011;9320;50.256;19.026;2022-09-09T02:02:48;23.15;;;15.82;;
18387;SDS011;9320;50.256;19.026;2022-09-09T02:05:28;22.90;;;17.52;;
18387;SDS011;9320;50.256;19.026;2022-09-09T02:08:05;24.75;;;17.17;;
18387;SDS011;9320;50.256;19.026;2022-09-09T02:10:37;30.48;;;19.20;;
18387;SDS011;9320;50.256;19.026;2022-09-09T02:13:11;29.63;;;20.25;;
18387;SDS011;9320;50.256;19.026;2022-09-09T02:15:42;28.05;;;20.10;;
18387;SDS011;9320;50.256;19.026;2022-09-09T02:18:15;27.88;;;19.75;;
18387;SDS011;9320;50.256;19.026;2022-09-09T02:20:50;25.33;;;18.20;;
18387;SDS011;9320;50.256;19.026;2022-09-09T02:23:19;28.52;;;18.77;;
18387;SDS011;9320;50.256;19.026;2022-09-09T02:25:48;27.85;;;19.10;;
18387;SDS011;9320;50.256;19.026;2022-09-09T02:28:20;26.83;;;17.35;;
18387;SDS011;9320;50.256;19.026;2022-09-09T02:30:51;26.10;;;17.70;;
18387;SDS011;9320;50.256;19.026;2022-09-09T02:33:21;24.40;;;17.33;;
18387;SDS011;9320;50.256;19.026;2022-09-09T02:35:52;24.58;;;17.25;;
18387;SDS011;9320;50.256;19.026;2022-09-09T02:38:28;23.67;;;17.15;;
18387;SDS011;9320;50.256;19.026;2022-09-09T02:41:01;26.42;;;16.55;;
18387;SDS011;9320;50.256;19.026;2022-09-09T02:43:32;22.25;;;16.30;;
18387;SDS011;9320;50.256;19.026;2022-09-09T02:46:03;23.73;;;15.23;;
18387;SDS011;9320;50.256;19.026;2022-09-09T02:48:40;22.55;;;15.75;;
18387;SDS011;9320;50.256;19.026;2022-09-09T02:51:17;19.70;;;15.35;;
18387;SDS011;9320;50.256;19.026;2022-09-09T02:53:52;23.42;;;15.40;;
18387;SDS011;9320;50.256;19.026;2022-09-09T02:56:25;22.67;;;15.63;;
18387;SDS011;9320;50.256;19.026;2022-09-09T02:58:58;25.60;;;18.08;;
18387;SDS011;9320;50.256;19.026;2022-09-09T03:01:26;24.80;;;17.10;;
18387;SDS011;9320;50.256;19.026;2022-09-09T03:03:54;25.23;;;16.85;;
18387;SDS011;9320;50.256;19.026;2022-09-09T03:06:22;21.50;;;16.00;;
18387;SDS011;9320;50.256;19.026;2022-09-09T03:08:50;25.25;;;17.45;;
18387;SDS011;9320;50.256;19.026;2022-09-09T03:11:18;25.80;;;17.25;;
18387;SDS011;9320;50.256;19.026;2022-09-09T03:13:46;22.63;;;16.83;;
18387;SDS011;9320;50.256;19.026;2022-09-09T03:16:16;21.40;;;15.95;;
18387;SDS011;9320;50.256;19.026;2022-09-09T03:18:44;24.40;;;16.20;;
18387;SDS011;9320;50.256;19.026;2022-09-09T03:21:12;23.63;;;15.20;;
18387;SDS011;9320;50.256;19.026;2022-09-09T03:23:40;21.48;;;15.18;;
18387;SDS011;9320;50.256;19.026;2022-09-09T03:26:08;19.45;;;14.75;;
18387;SDS011;9320;50.256;19.026;2022-09-09T03:28:36;22.63;;;15.45;;
18387;SDS011;9320;50.256;19.026;2022-09-09T03:31:05;18.77;;;14.32;;
18387;SDS011;9320;50.256;19.026;2022-09-09T03:33:37;20.08;;;15.05;;
18387;SDS011;9320;50.256;19.026;2022-09-09T03:36:07;21.92;;;16.10;;
18387;SDS011;9320;50.256;19.026;2022-09-09T03:38:36;25.48;;;15.15;;
18387;SDS011;9320;50.256;19.026;2022-09-09T03:41:04;22.40;;;14.63;;
18387;SDS011;9320;50.256;19.026;2022-09-09T03:43:34;18.05;;;13.35;;
18387;SDS011;9320;50.256;19.026;2022-09-09T03:46:04;18.65;;;14.07;;
18387;SDS011;9320;50.256;19.026;2022-09-09T03:48:32;19.83;;;14.43;;
18387;SDS011;9320;50.256;19.026;2022-09-09T03:51:01;18.85;;;13.98;;
18387;SDS011;9320;50.256;19.026;2022-09-09T03:53:30;19.05;;;13.95;;
18387;SDS011;9320;50.256;19.026;2022-09-09T03:55:58;21.40;;;14.77;;
18387;SDS011;9320;50.256;19.026;2022-09-09T03:58:27;20.70;;;14.95;;
18387;SDS011;9320;50.256;19.026;2022-09-09T04:00:55;18.83;;;13.93;;
18387;SDS011;9320;50.256;19.026;2022-09-09T04:03:25;20.50;;;14.52;;
18387;SDS011;9320;50.256;19.026;2022-09-09T04:05:54;27.02;;;15.98;;
18387;SDS011;9320;50.256;19.026;2022-09-09T04:08:25;24.25;;;15.23;;
18387;SDS011;9320;50.256;19.026;2022-09-09T04:10:53;19.80;;;14.10;;
18387;SDS011;9320;50.256;19.026;2022-09-09T04:13:24;22.58;;;15.60;;
18387;SDS011;9320;50.256;19.026;2022-09-09T04:15:53;23.27;;;15.48;;
18387;SDS011;9320;50.256;19.026;2022-09-09T04:18:23;27.33;;;16.80;;
18387;SDS011;9320;50.256;19.026;2022-09-09T04:20:52;24.95;;;17.02;;
18387;SDS011;9320;50.256;19.026;2022-09-09T04:23:22;21.73;;;15.80;;
18387;SDS011;9320;50.256;19.026;2022-09-09T04:25:53;24.45;;;15.88;;
18387;SDS011;9320;50.256;19.026;2022-09-09T04:28:23;23.88;;;16.85;;
18387;SDS011;9320;50.256;19.026;2022-09-09T04:30:52;26.67;;;15.70;;
18387;SDS011;9320;50.256;19.026;2022-09-09T04:33:20;24.67;;;16.45;;
18387;SDS011;9320;50.256;19.026;2022-09-09T04:35:49;25.67;;;15.57;;
18387;SDS011;9320;50.256;19.026;2022-09-09T04:38:19;21.27;;;15.57;;
18387;SDS011;9320;50.256;19.026;2022-09-09T04:40:50;22.60;;;16.02;;
18387;SDS011;9320;50.256;19.026;2022-09-09T04:43:20;23.60;;;16.50;;
18387;SDS011;9320;50.256;19.026;2022-09-09T04:45:49;23.23;;;16.27;;
18387;SDS011;9320;50.256;19.026;2022-09-09T04:48:18;21.70;;;15.18;;
18387;SDS011;9320;50.256;19.026;2022-09-09T04:50:53;22.60;;;16.30;;
18387;SDS011;9320;50.256;19.026;2022-09-09T04:53:23;24.50;;;17.20;;
18387;SDS011;9320;50.256;19.026;2022-09-09T04:55:52;26.15;;;16.55;;
18387;SDS011;9320;50.256;19.026;2022-09-09T04:58:28;22.80;;;15.15;;
18387;SDS011;9320;50.256;19.026;2022-09-09T05:01:02;21.40;;;14.95;;
18387;SDS011;9320;50.256;19.026;2022-09-09T05:03:31;21.52;;;14.95;;
18387;SDS011;9320;50.256;19.026;2022-09-09T05:06:04;21.77;;;14.30;;
18387;SDS011;9320;50.256;19.026;2022-09-09T05:08:34;20.05;;;13.95;;
18387;SDS011;9320;50.256;19.026;2022-09-09T05:11:11;21.25;;;14.65;;
18387;SDS011;9320;50.256;19.026;2022-09-09T05:13:41;21.55;;;14.63;;
18387;SDS011;9320;50.256;19.026;2022-09-09T05:16:10;18.58;;;13.63;;
18387;SDS011;9320;50.256;19.026;2022-09-09T05:18:38;18.25;;;13.35;;
18387;SDS011;9320;50.256;19.026;2022-09-09T05:21:06;20.13;;;13.93;;
18387;SDS011;9320;50.256;19.026;2022-09-09T05:23:34;20.25;;;14.35;;
18387;SDS011;9320;50.256;19.026;2022-09-09T05:26:03;21.65;;;15.10;;
18387;SDS011;9320;50.256;19.026;2022-09-09T05:28:34;19.48;;;13.90;;
18387;SDS011;9320;50.256;19.026;2022-09-09T05:31:03;18.58;;;12.55;;
18387;SDS011;9320;50.256;19.026;2022-09-09T05:33:34;20.25;;;12.55;;
18387;SDS011;9320;50.256;19.026;2022-09-09T05:36:04;20.83;;;13.95;;
18387;SDS011;9320;50.256;19.026;2022-09-09T05:38:34;22.05;;;13.85;;
18387;SDS011;9320;50.256;19.026;2022-09-09T05:41:02;20.55;;;13.40;;
18387;SDS011;9320;50.256;19.026;2022-09-09T05:43:32;20.60;;;13.85;;
18387;SDS011;9320;50.256;19.026;2022-09-09T05:46:02;18.73;;;13.13;;
18387;SDS011;9320;50.256;19.026;2022-09-09T05:48:32;19.98;;;14.10;;
18387;SDS011;9320;50.256;19.026;2022-09-09T05:51:02;18.27;;;12.85;;
18387;SDS011;9320;50.256;19.026;2022-09-09T05:53:30;20.70;;;13.75;;
18387;SDS011;9320;50.256;19.026;2022-09-09T05:56:00;18.80;;;13.25;;
18387;SDS011;9320;50.256;19.026;2022-09-09T05:58:32;21.55;;;13.30;;
18387;SDS011;9320;50.256;19.026;2022-09-09T06:01:01;18.25;;;13.57;;
18387;SDS011;9320;50.256;19.026;2022-09-09T06:03:30;18.02;;;12.68;;
18387;SDS011;9320;50.256;19.026;2022-09-09T06:05:59;16.90;;;12.77;;
18387;SDS011;9320;50.256;19.026;2022-09-09T06:08:27;19.50;;;12.63;;
18387;SDS011;9320;50.256;19.026;2022-09-09T06:11:00;17.40;;;12.05;;
18387;SDS011;9320;50.256;19.026;2022-09-09T06:13:31;16.58;;;11.82;;
18387;SDS011;9320;50.256;19.026;2022-09-09T06:15:59;18.92;;;12.43;;
18387;SDS011;9320;50.256;19.026;2022-09-09T06:18:28;19.13;;;12.02;;
18387;SDS011;9320;50.256;19.026;2022-09-09T06:20:56;17.67;;;12.60;;
18387;SDS011;9320;50.256;19.026;2022-09-09T06:23:26;18.33;;;11.07;;
18387;SDS011;9320;50.256;19.026;2022-09-09T06:26:02;17.48;;;11.13;;
18387;SDS011;9320;50.256;19.026;2022-09-09T06:28:33;17.58;;;12.52;;
18387;SDS011;9320;50.256;19.026;2022-09-09T06:31:03;15.68;;;11.32;;
18387;SDS011;9320;50.256;19.026;2022-09-09T06:33:33;15.52;;;10.35;;
18387;SDS011;9320;50.256;19.026;2022-09-09T06:36:04;16.13;;;10.73;;
18387;SDS011;9320;50.256;19.026;2022-09-09T06:38:32;13.80;;;10.63;;
18387;SDS011;9320;50.256;19.026;2022-09-09T06:41:00;12.25;;;9.68;;
18387;SDS011;9320;50.256;19.026;2022-09-09T06:43:28;17.45;;;10.32;;
18387;SDS011;9320;50.256;19.026;2022-09-09T06:45:58;13.80;;;10.70;;
18387;SDS011;9320;50.256;19.026;2022-09-09T06:48:29;12.18;;;8.80;;
18387;SDS011;9320;50.256;19.026;2022-09-09T06:51:00;13.88;;;8.50;;
18387;SDS011;9320;50.256;19.026;2022-09-09T06:53:29;13.68;;;8.63;;
18387;SDS011;9320;50.256;19.026;2022-09-09T06:55:59;10.25;;;7.28;;
18387;SDS011;9320;50.256;19.026;2022-09-09T06:58:28;14.95;;;7.75;;
18387;SDS011;9320;50.256;19.026;2022-09-09T07:01:03;10.57;;;7.22;;
18387;SDS011;9320;50.256;19.026;2022-09-09T07:03:31;10.50;;;6.75;;
18387;SDS011;9320;50.256;19.026;2022-09-09T07:06:00;9.35;;;5.82;;
18387;SDS011;9320;50.256;19.026;2022-09-09T07:08:30;10.30;;;5.30;;
18387;SDS011;9320;50.256;19.026;2022-09-09T07:11:01;9.52;;;6.55;;
18387;SDS011;9320;50.256;19.026;2022-09-09T07:13:37;11.38;;;6.28;;
18387;SDS011;9320;50.256;19.026;2022-09-09T07:16:07;10.30;;;5.80;;
18387;SDS011;9320;50.256;19.026;2022-09-09T07:18:37;8.93;;;4.90;;
18387;SDS011;9320;50.256;19.026;2022-09-09T07:21:06;6.47;;;4.72;;
18387;SDS011;9320;50.256;19.026;2022-09-09T07:23:34;7.95;;;5.25;;
18387;SDS011;9320;50.256;19.026;2022-09-09T07:26:02;7.40;;;4.43;;
18387;SDS011;9320;50.256;19.026;2022-09-09T07:28:34;6.68;;;4.20;;
18387;SDS011;9320;50.256;19.026;2022-09-09T07:31:03;6.07;;;4.60;;
18387;SDS011;9320;50.256;19.026;2022-09-09T07:33:34;8.63;;;4.38;;
18387;SDS011;9320;50.256;19.026;2022-09-09T07:36:04;6.28;;;4.20;;
18387;SDS011;9320;50.256;19.026;2022-09-09T07:38:37;5.60;;;3.67;;
18387;SDS011;9320;50.256;19.026;2022-09-09T07:41:06;7.80;;;4.05;;
18387;SDS011;9320;50.256;19.026;2022-09-09T07:43:38;7.00;;;4.60;;
18387;SDS011;9320;50.256;19.026;2022-09-09T07:46:07;5.70;;;3.92;;
18387;SDS011;9320;50.256;19.026;2022-09-09T07:48:37;7.82;;;4.43;;
18387;SDS011;9320;50.256;19.026;2022-09-09T07:51:06;8.00;;;4.20;;
18387;SDS011;9320;50.256;19.026;2022-09-09T07:53:37;8.13;;;4.00;;
18387;SDS011;9320;50.256;19.026;2022-09-09T07:56:07;14.75;;;4.70;;
18387;SDS011;9320;50.256;19.026;2022-09-09T07:58:36;6.72;;;3.92;;
18387;SDS011;9320;50.256;19.026;2022-09-09T08:01:08;6.60;;;3.67;;
18387;SDS011;9320;50.256;19.026;2022-09-09T08:03:39;5.68;;;3.50;;
18387;SDS011;9320;50.256;19.026;2022-09-09T08:06:07;6.20;;;3.80;;
18387;SDS011;9320;50.256;19.026;2022-09-09T08:08:36;8.23;;;4.10;;
18387;SDS011;9320;50.256;19.026;2022-09-09T08:11:05;7.13;;;3.95;;
18387;SDS011;9320;50.256;19.026;2022-09-09T08:13:35;6.28;;;3.88;;
18387;SDS011;9320;50.256;19.026;2022-09-09T08:16:05;6.07;;;3.83;;
18387;SDS011;9320;50.256;19.026;2022-09-09T08:18:34;5.40;;;3.42;;
18387;SDS011;9320;50.256;19.026;2022-09-09T08:21:09;5.40;;;3.60;;
18387;SDS011;9320;50.256;19.026;2022-09-09T08:23:39;4.72;;;3.20;;
18387;SDS011;9320;50.256;19.026;2022-09-09T08:26:10;5.82;;;3.10;;
18387;SDS011;9320;50.256;19.026;2022-09-09T08:28:39;5.13;;;3.42;;
18387;SDS011;9320;50.256;19.026;2022-09-09T08:31:08;5.50;;;3.65;;
18387;SDS011;9320;50.256;19.026;2022-09-09T08:33:38;6.13;;;3.17;;
18387;SDS011;9320;50.256;19.026;2022-09-09T08:36:10;4.10;;;3.13;;
18387;SDS011;9320;50.256;19.026;2022-09-09T08:38:41;8.40;;;3.10;;
18387;SDS011;9320;50.256;19.026;2022-09-09T08:41:15;9.30;;;3.42;;
18387;SDS011;9320;50.256;19.026;2022-09-09T08:44:06;10.60;;;3.90;;
18387;SDS011;9320;50.256;19.026;2022-09-09T08:46:39;7.10;;;3.42;;
18387;SDS011;9320;50.256;19.026;2022-09-09T08:49:18;6.05;;;3.50;;
18387;SDS011;9320;50.256;19.026;2022-09-09T08:52:01;6.97;;;3.10;;
18387;SDS011;9320;50.256;19.026;2022-09-09T08:54:33;6.40;;;2.95;;
18387;SDS011;9320;50.256;19.026;2022-09-09T08:57:18;4.53;;;2.90;;
18387;SDS011;9320;50.256;19.026;2022-09-09T08:59:53;3.65;;;2.70;;
18387;SDS011;9320;50.256;19.026;2022-09-09T09:02:25;13.77;;;4.03;;
18387;SDS011;9320;50.256;19.026;2022-09-09T09:05:06;5.35;;;3.50;;
18387;SDS011;9320;50.256;19.026;2022-09-09T09:07:48;7.55;;;3.53;;
18387;SDS011;9320;50.256;19.026;2022-09-09T09:10:31;5.03;;;3.15;;
18387;SDS011;9320;50.256;19.026;2022-09-09T09:13:12;5.95;;;2.72;;
18387;SDS011;9320;50.256;19.026;2022-09-09T09:15:42;5.72;;;2.78;;
18387;SDS011;9320;50.256;19.026;2022-09-09T09:18:14;5.93;;;3.10;;
18387;SDS011;9320;50.256;19.026;2022-09-09T09:20:47;4.93;;;2.90;;
18387;SDS011;9320;50.256;19.026;2022-09-09T09:23:23;2.90;;;2.40;;
18387;SDS011;9320;50.256;19.026;2022-09-09T09:25:54;6.32;;;2.90;;
18387;SDS011;9320;50.256;19.026;2022-09-09T09:28:27;2.95;;;2.40;;
18387;SDS011;9320;50.256;19.026;2022-09-09T09:30:58;3.20;;;2.50;;
18387;SDS011;9320;50.256;19.026;2022-09-09T09:33:33;2.80;;;2.25;;
18387;SDS011;9320;50.256;19.026;2022-09-09T09:36:06;4.40;;;2.17;;
18387;SDS011;9320;50.256;19.026;2022-09-09T09:38:37;3.83;;;2.42;;
18387;SDS011;9320;50.256;19.026;2022-09-09T09:41:30;3.40;;;2.53;;
18387;SDS011;9320;50.256;19.026;2022-09-09T09:43:59;6.00;;;2.60;;
18387;SDS011;9320;50.256;19.026;2022-09-09T09:46:29;6.45;;;2.75;;
18387;SDS011;9320;50.256;19.026;2022-09-09T09:48:58;3.92;;;2.20;;
18387;SDS011;9320;50.256;19.026;2022-09-09T09:51:27;3.92;;;2.53;;
18387;SDS011;9320;50.256;19.026;2022-09-09T09:54:05;5.68;;;2.05;;
18387;SDS011;9320;50.256;19.026;2022-09-09T09:56:41;3.05;;;2.20;;
18387;SDS011;9320;50.256;19.026;2022-09-09T09:59:19;2.63;;;1.98;;
18387;SDS011;9320;50.256;19.026;2022-09-09T10:02:14;5.53;;;2.35;;
18387;SDS011;9320;50.256;19.026;2022-09-09T10:04:44;8.68;;;2.90;;
18387;SDS011;9320;50.256;19.026;2022-09-09T10:07:15;8.77;;;3.10;;
18387;SDS011;9320;50.256;19.026;2022-09-09T10:09:48;3.70;;;2.13;;
18387;SDS011;9320;50.256;19.026;2022-09-09T10:12:24;2.75;;;2.20;;
18387;SDS011;9320;50.256;19.026;2022-09-09T10:15:04;4.70;;;2.42;;
18387;SDS011;9320;50.256;19.026;2022-09-09T10:17:52;4.03;;;2.13;;
18387;SDS011;9320;50.256;19.026;2022-09-09T10:20:32;5.80;;;2.67;;
18387;SDS011;9320;50.256;19.026;2022-09-09T10:23:13;6.90;;;2.50;;
18387;SDS011;9320;50.256;19.026;2022-09-09T10:25:57;7.05;;;2.90;;
18387;SDS011;9320;50.256;19.026;2022-09-09T10:28:45;3.17;;;2.42;;
18387;SDS011;9320;50.256;19.026;2022-09-09T10:31:28;4.30;;;2.30;;
18387;SDS011;9320;50.256;19.026;2022-09-09T10:34:06;3.67;;;2.35;;
18387;SDS011;9320;50.256;19.026;2022-09-09T10:36:44;3.45;;;2.40;;
18387;SDS011;9320;50.256;19.026;2022-09-09T10:39:18;5.55;;;2.58;;
18387;SDS011;9320;50.256;19.026;2022-09-09T10:42:01;4.53;;;2.70;;
18387;SDS011;9320;50.256;19.026;2022-09-09T10:44:39;5.95;;;2.80;;
18387;SDS011;9320;50.256;19.026;2022-09-09T10:47:20;6.63;;;2.65;;
18387;SDS011;9320;50.256;19.026;2022-09-09T10:50:03;8.23;;;4.10;;
18387;SDS011;9320;50.256;19.026;2022-09-09T10:52:47;5.38;;;2.60;;
18387;SDS011;9320;50.256;19.026;2022-09-09T10:55:26;7.63;;;4.47;;
18387;SDS011;9320;50.256;19.026;2022-09-09T10:58:03;3.08;;;2.55;;
18387;SDS011;9320;50.256;19.026;2022-09-09T11:00:37;7.50;;;2.92;;
18387;SDS011;9320;50.256;19.026;2022-09-09T11:03:09;6.82;;;2.50;;
18387;SDS011;9320;50.256;19.026;2022-09-09T11:05:46;2.25;;;2.00;;
18387;SDS011;9320;50.256;19.026;2022-09-09T11:08:19;5.93;;;3.10;;
18387;SDS011;9320;50.256;19.026;2022-09-09T11:10:56;4.43;;;2.20;;
18387;SDS011;9320;50.256;19.026;2022-09-09T11:13:30;5.75;;;2.63;;
18387;SDS011;9320;50.256;19.026;2022-09-09T11:16:10;5.10;;;2.60;;
18387;SDS011;9320;50.256;19.026;2022-09-09T11:18:47;3.63;;;2.22;;
18387;SDS011;9320;50.256;19.026;2022-09-09T11:21:16;2.63;;;2.20;;
18387;SDS011;9320;50.256;19.026;2022-09-09T11:23:50;4.63;;;2.28;;
18387;SDS011;9320;50.256;19.026;2022-09-09T11:26:26;5.38;;;2.30;;
18387;SDS011;9320;50.256;19.026;2022-09-09T11:29:02;2.10;;;1.80;;
18387;SDS011;9320;50.256;19.026;2022-09-09T11:31:46;4.32;;;1.95;;
18387;SDS011;9320;50.256;19.026;2022-09-09T11:34:32;3.25;;;2.10;;
18387;SDS011;9320;50.256;19.026;2022-09-09T11:37:13;3.72;;;2.10;;
18387;SDS011;9320;50.256;19.026;2022-09-09T11:39:54;3.80;;;2.10;;
18387;SDS011;9320;50.256;19.026;2022-09-09T11:42:37;4.53;;;2.28;;
18387;SDS011;9320;50.256;19.026;2022-09-09T11:45:10;2.72;;;2.05;;
18387;SDS011;9320;50.256;19.026;2022-09-09T11:47:51;2.00;;;1.80;;
18387;SDS011;9320;50.256;19.026;2022-09-09T11:50:29;6.43;;;2.47;;
18387;SDS011;9320;50.256;19.026;2022-09-09T11:53:03;3.63;;;2.00;;
18387;SDS011;9320;50.256;19.026;2022-09-09T11:56:00;5.35;;;2.08;;
18387;SDS011;9320;50.256;19.026;2022-09-09T11:58:33;2.63;;;2.00;;
18387;SDS011;9320;50.256;19.026;2022-09-09T12:01:16;3.35;;;1.88;;
18387;SDS011;9320;50.256;19.026;2022-09-09T12:04:01;2.65;;;2.22;;
18387;SDS011;9320;50.256;19.026;2022-09-09T12:06:50;3.78;;;2.20;;
18387;SDS011;9320;50.256;19.026;2022-09-09T12:09:22;4.72;;;2.28;;
18387;SDS011;9320;50.256;19.026;2022-09-09T12:12:04;2.60;;;2.10;;
18387;SDS011;9320;50.256;19.026;2022-09-09T12:14:36;3.17;;;2.17;;
18387;SDS011;9320;50.256;19.026;2022-09-09T12:17:18;2.70;;;2.17;;
18387;SDS011;9320;50.256;19.026;2022-09-09T12:19:48;3.53;;;2.40;;
18387;SDS011;9320;50.256;19.026;2022-09-09T12:22:32;5.05;;;2.38;;
18387;SDS011;9320;50.256;19.026;2022-09-09T12:25:09;3.85;;;2.60;;
18387;SDS011;9320;50.256;19.026;2022-09-09T12:27:51;4.63;;;2.30;;
18387;SDS011;9320;50.256;19.026;2022-09-09T12:30:29;3.78;;;2.10;;
18387;SDS011;9320;50.256;19.026;2022-09-09T12:33:06;3.42;;;2.20;;
18387;SDS011;9320;50.256;19.026;2022-09-09T12:35:38;4.45;;;2.00;;
18387;SDS011;9320;50.256;19.026;2022-09-09T12:38:10;2.78;;;2.20;;
18387;SDS011;9320;50.256;19.026;2022-09-09T12:40:42;2.90;;;2.40;;
18387;SDS011;9320;50.256;19.026;2022-09-09T12:43:23;3.88;;;2.08;;
18387;SDS011;9320;50.256;19.026;2022-09-09T12:45:53;6.93;;;2.40;;
18387;SDS011;9320;50.256;19.026;2022-09-09T12:48:35;2.17;;;1.90;;
18387;SDS011;9320;50.256;19.026;2022-09-09T12:51:07;4.10;;;1.90;;
18387;SDS011;9320;50.256;19.026;2022-09-09T12:53:45;4.10;;;2.28;;
18387;SDS011;9320;50.256;19.026;2022-09-09T12:56:18;3.95;;;2.08;;
18387;SDS011;9320;50.256;19.026;2022-09-09T12:58:48;3.70;;;2.20;;
18387;SDS011;9320;50.256;19.026;2022-09-09T13:01:20;3.75;;;2.60;;
18387;SDS011;9320;50.256;19.026;2022-09-09T13:03:51;3.90;;;2.35;;
18387;SDS011;9320;50.256;19.026;2022-09-09T13:06:21;2.90;;;2.28;;
18387;SDS011;9320;50.256;19.026;2022-09-09T13:08:55;2.50;;;2.08;;
18387;SDS011;9320;50.256;19.026;2022-09-09T13:11:25;2.30;;;2.10;;
18387;SDS011;9320;50.256;19.026;2022-09-09T13:13:57;4.22;;;2.30;;
18387;SDS011;9320;50.256;19.026;2022-09-09T13:16:26;4.15;;;2.38;;
18387;SDS011;9320;50.256;19.026;2022-09-09T13:18:59;2.47;;;2.20;;
18387;SDS011;9320;50.256;19.026;2022-09-09T13:21:33;3.47;;;2.30;;
18387;SDS011;9320;50.256;19.026;2022-09-09T13:24:04;3.40;;;2.25;;
18387;SDS011;9320;50.256;19.026;2022-09-09T13:26:34;4.65;;;2.22;;
18387;SDS011;9320;50.256;19.026;2022-09-09T13:29:14;3.00;;;2.40;;
18387;SDS011;9320;50.256;19.026;2022-09-09T13:31:47;4.60;;;2.20;;
18387;SDS011;9320;50.256;19.026;2022-09-09T13:34:27;3.42;;;1.92;;
18387;SDS011;9320;50.256;19.026;2022-09-09T13:36:58;5.15;;;2.20;;
18387;SDS011;9320;50.256;19.026;2022-09-09T13:39:29;2.95;;;2.13;;
18387;SDS011;9320;50.256;19.026;2022-09-09T13:41:57;3.30;;;2.10;;
18387;SDS011;9320;50.256;19.026;2022-09-09T13:44:26;2.67;;;2.15;;
18387;SDS011;9320;50.256;19.026;2022-09-09T13:47:03;4.13;;;2.00;;
18387;SDS011;9320;50.256;19.026;2022-09-09T13:49:37;2.72;;;2.00;;
18387;SDS011;9320;50.256;19.026;2022-09-09T13:52:08;2.53;;;2.20;;
18387;SDS011;9320;50.256;19.026;2022-09-09T13:54:38;4.15;;;2.30;;
18387;SDS011;9320;50.256;19.026;2022-09-09T13:57:13;2.95;;;2.10;;
18387;SDS011;9320;50.256;19.026;2022-09-09T13:59:44;3.45;;;2.30;;
18387;SDS011;9320;50.256;19.026;2022-09-09T14:02:29;3.55;;;2.53;;
18387;SDS011;9320;50.256;19.026;2022-09-09T14:04:59;2.67;;;2.10;;
18387;SDS011;9320;50.256;19.026;2022-09-09T14:07:27;3.92;;;2.20;;
18387;SDS011;9320;50.256;19.026;2022-09-09T14:09:55;4.30;;;2.30;;
18387;SDS011;9320;50.256;19.026;2022-09-09T14:12:23;2.78;;;2.10;;
18387;SDS011;9320;50.256;19.026;2022-09-09T14:14:51;2.90;;;2.22;;
18387;SDS011;9320;50.256;19.026;2022-09-09T14:17:19;6.60;;;2.67;;
18387;SDS011;9320;50.256;19.026;2022-09-09T14:19:48;3.53;;;2.00;;
18387;SDS011;9320;50.256;19.026;2022-09-09T14:22:18;4.35;;;2.67;;
18387;SDS011;9320;50.256;19.026;2022-09-09T14:24:46;5.35;;;2.22;;
18387;SDS011;9320;50.256;19.026;2022-09-09T14:27:14;3.95;;;2.60;;
18387;SDS011;9320;50.256;19.026;2022-09-09T14:29:44;5.22;;;2.40;;
18387;SDS011;9320;50.256;19.026;2022-09-09T14:32:12;5.78;;;2.30;;
18387;SDS011;9320;50.256;19.026;2022-09-09T14:34:40;3.17;;;2.40;;
18387;SDS011;9320;50.256;19.026;2022-09-09T14:37:08;4.72;;;2.50;;
18387;SDS011;9320;50.256;19.026;2022-09-09T14:39:37;4.72;;;2.50;;
18387;SDS011;9320;50.256;19.026;2022-09-09T14:42:05;3.28;;;2.50;;
18387;SDS011;9320;50.256;19.026;2022-09-09T14:44:34;3.70;;;2.63;;
18387;SDS011;9320;50.256;19.026;2022-09-09T14:47:03;6.10;;;2.58;;
18387;SDS011;9320;50.256;19.026;2022-09-09T14:49:32;5.63;;;2.60;;
18387;SDS011;9320;50.256;19.026;2022-09-09T14:52:00;4.43;;;2.78;;
18387;SDS011;9320;50.256;19.026;2022-09-09T14:54:28;4.25;;;2.38;;
18387;SDS011;9320;50.256;19.026;2022-09-09T14:56:57;3.83;;;2.35;;
18387;SDS011;9320;50.256;19.026;2022-09-09T14:59:25;2.67;;;2.20;;
18387;SDS011;9320;50.256;19.026;2022-09-09T15:01:54;4.57;;;2.88;;
18387;SDS011;9320;50.256;19.026;2022-09-09T15:04:22;5.32;;;2.30;;
18387;SDS011;9320;50.256;19.026;2022-09-09T15:06:50;6.22;;;2.67;;
18387;SDS011;9320;50.256;19.026;2022-09-09T15:09:19;2.30;;;2.10;;